sensor_id;sensor_type;location;lat;lon;timestamp;temperature;humidity
1956;DHT22;978;48.314;11.562;2022-11-11T00:00:38;22.50;78.80
1956;DHT22;978;48.314;11.562;2022-11-11T00:03:05;22.50;78.80
1956;DHT22;978;48.314;11.562;2022-11-11T00:05:32;22.50;78.80
1956;DHT22;978;48.314;11.562;2022-11-11T00:07:59;22.50;78.80
1956;DHT22;978;48.314;11.562;2022-11-11T00:10:27;22.50;78.80
1956;DHT22;978;48.314;11.562;2022-11-11T00:12:58;22.50;78.80
1956;DHT22;978;48.314;11.562;2022-11-11T00:15:25;22.50;78.80
1956;DHT22;978;48.314;11.562;2022-11-11T00:17:56;22.50;78.80
1956;DHT22;978;48.314;11.562;2022-11-11T00:20:40;22.50;78.80
1956;DHT22;978;48.314;11.562;2022-11-11T00:23:26;22.50;78.80
1956;DHT22;978;48.314;11.562;2022-11-11T00:26:13;22.50;78.90
1956;DHT22;978;48.314;11.562;2022-11-11T00:28:40;22.50;78.90
1956;DHT22;978;48.314;11.562;2022-11-11T00:31:10;22.50;78.90
1956;DHT22;978;48.314;11.562;2022-11-11T00:33:38;22.50;78.90
1956;DHT22;978;48.314;11.562;2022-11-11T00:36:06;22.50;78.90
1956;DHT22;978;48.314;11.562;2022-11-11T00:38:31;22.50;79.30
1956;DHT22;978;48.314;11.562;2022-11-11T00:41:15;22.50;78.90
1956;DHT22;978;48.314;11.562;2022-11-11T00:43:44;22.50;78.90
1956;DHT22;978;48.314;11.562;2022-11-11T00:46:12;22.50;78.90
1956;DHT22;978;48.314;11.562;2022-11-11T00:49:01;22.50;78.90
1956;DHT22;978;48.314;11.562;2022-11-11T00:51:45;22.50;78.90
1956;DHT22;978;48.314;11.562;2022-11-11T00:54:12;22.50;78.90
1956;DHT22;978;48.314;11.562;2022-11-11T00:56:39;22.50;78.90
1956;DHT22;978;48.314;11.562;2022-11-11T00:59:07;22.50;78.90
1956;DHT22;978;48.314;11.562;2022-11-11T01:01:35;22.50;78.90
1956;DHT22;978;48.314;11.562;2022-11-11T01:04:04;22.50;78.90
1956;DHT22;978;48.314;11.562;2022-11-11T01:06:31;22.50;78.90
1956;DHT22;978;48.314;11.562;2022-11-11T01:09:04;22.50;78.90
1956;DHT22;978;48.314;11.562;2022-11-11T01:11:32;22.50;78.90
1956;DHT22;978;48.314;11.562;2022-11-11T01:13:59;22.50;78.90
1956;DHT22;978;48.314;11.562;2022-11-11T01:16:26;22.50;78.90
1956;DHT22;978;48.314;11.562;2022-11-11T01:18:54;22.50;78.90
1956;DHT22;978;48.314;11.562;2022-11-11T01:21:23;22.50;78.90
1956;DHT22;978;48.314;11.562;2022-11-11T01:23:52;22.50;78.90
1956;DHT22;978;48.314;11.562;2022-11-11T01:26:20;22.50;78.90
1956;DHT22;978;48.314;11.562;2022-11-11T01:28:48;22.50;78.90
1956;DHT22;978;48.314;11.562;2022-11-11T01:31:17;22.50;78.90
1956;DHT22;978;48.314;11.562;2022-11-11T01:33:44;22.50;78.90
1956;DHT22;978;48.314;11.562;2022-11-11T01:36:13;22.50;78.90
1956;DHT22;978;48.314;11.562;2022-11-11T01:38:41;22.50;78.90
1956;DHT22;978;48.314;11.562;2022-11-11T01:41:18;22.50;78.90
1956;DHT22;978;48.314;11.562;2022-11-11T01:44:00;22.50;78.90
1956;DHT22;978;48.314;11.562;2022-11-11T01:46:32;22.50;78.90
1956;DHT22;978;48.314;11.562;2022-11-11T01:49:13;22.50;78.90
1956;DHT22;978;48.314;11.562;2022-11-11T01:51:57;22.50;78.90
1956;DHT22;978;48.314;11.562;2022-11-11T01:54:30;22.50;78.90
1956;DHT22;978;48.314;11.562;2022-11-11T01:57:02;22.50;78.90
1956;DHT22;978;48.314;11.562;2022-11-11T01:59:30;22.50;78.90
1956;DHT22;978;48.314;11.562;2022-11-11T02:01:58;22.50;78.90
1956;DHT22;978;48.314;11.562;2022-11-11T02:04:26;22.50;78.90
1956;DHT22;978;48.314;11.562;2022-11-11T02:07:10;22.50;78.90
1956;DHT22;978;48.314;11.562;2022-11-11T02:09:41;22.50;78.80
1956;DHT22;978;48.314;11.562;2022-11-11T02:12:09;22.50;78.90
1956;DHT22;978;48.314;11.562;2022-11-11T02:14:56;22.50;78.90
1956;DHT22;978;48.314;11.562;2022-11-11T02:17:25;22.50;78.90
1956;DHT22;978;48.314;11.562;2022-11-11T02:19:55;22.50;78.90
1956;DHT22;978;48.314;11.562;2022-11-11T02:22:30;22.50;78.80
1956;DHT22;978;48.314;11.562;2022-11-11T02:25:03;22.50;78.90
1956;DHT22;978;48.314;11.562;2022-11-11T02:27:34;22.50;78.90
1956;DHT22;978;48.314;11.562;2022-11-11T02:30:04;22.50;78.80
1956;DHT22;978;48.314;11.562;2022-11-11T02:32:31;22.50;78.90
1956;DHT22;978;48.314;11.562;2022-11-11T02:34:59;22.50;78.90
1956;DHT22;978;48.314;11.562;2022-11-11T02:37:27;22.50;78.80
1956;DHT22;978;48.314;11.562;2022-11-11T02:39:57;22.50;78.80
1956;DHT22;978;48.314;11.562;2022-11-11T02:42:27;22.50;78.80
1956;DHT22;978;48.314;11.562;2022-11-11T02:44:53;22.50;78.80
1956;DHT22;978;48.314;11.562;2022-11-11T02:47:23;22.50;78.70
1956;DHT22;978;48.314;11.562;2022-11-11T02:49:50;22.50;78.80
1956;DHT22;978;48.314;11.562;2022-11-11T02:52:17;22.50;78.80
1956;DHT22;978;48.314;11.562;2022-11-11T02:54:44;22.50;78.80
1956;DHT22;978;48.314;11.562;2022-11-11T02:57:12;22.50;78.80
1956;DHT22;978;48.314;11.562;2022-11-11T02:59:41;22.50;78.80
1956;DHT22;978;48.314;11.562;2022-11-11T03:02:08;22.50;78.80
1956;DHT22;978;48.314;11.562;2022-11-11T03:04:35;22.50;78.80
1956;DHT22;978;48.314;11.562;2022-11-11T03:07:03;22.50;78.80
1956;DHT22;978;48.314;11.562;2022-11-11T03:09:30;22.50;78.70
1956;DHT22;978;48.314;11.562;2022-11-11T03:11:57;22.40;78.70
1956;DHT22;978;48.314;11.562;2022-11-11T03:14:24;22.50;78.60
1956;DHT22;978;48.314;11.562;2022-11-11T03:16:53;22.50;78.70
1956;DHT22;978;48.314;11.562;2022-11-11T03:19:38;22.50;78.70
1956;DHT22;978;48.314;11.562;2022-11-11T03:22:04;22.50;78.80
1956;DHT22;978;48.314;11.562;2022-11-11T03:24:30;22.50;78.80
1956;DHT22;978;48.314;11.562;2022-11-11T03:27:11;22.50;78.70
1956;DHT22;978;48.314;11.562;2022-11-11T03:29:38;22.50;78.60
1956;DHT22;978;48.314;11.562;2022-11-11T03:32:07;22.50;78.70
1956;DHT22;978;48.314;11.562;2022-11-11T03:34:34;22.50;78.60
1956;DHT22;978;48.314;11.562;2022-11-11T03:37:01;22.50;79.40
1956;DHT22;978;48.314;11.562;2022-11-11T03:39:45;22.50;78.70
1956;DHT22;978;48.314;11.562;2022-11-11T03:42:12;22.50;78.70
1956;DHT22;978;48.314;11.562;2022-11-11T03:44:38;22.50;78.70
1956;DHT22;978;48.314;11.562;2022-11-11T03:47:07;22.50;78.60
1956;DHT22;978;48.314;11.562;2022-11-11T03:49:33;22.50;78.70
1956;DHT22;978;48.314;11.562;2022-11-11T03:52:00;22.50;78.70
1956;DHT22;978;48.314;11.562;2022-11-11T03:54:27;22.50;78.60
1956;DHT22;978;48.314;11.562;2022-11-11T03:56:57;22.50;78.60
1956;DHT22;978;48.314;11.562;2022-11-11T03:59:38;22.50;78.50
1956;DHT22;978;48.314;11.562;2022-11-11T04:02:04;22.50;78.60
1956;DHT22;978;48.314;11.562;2022-11-11T04:04:51;22.50;78.50
1956;DHT22;978;48.314;11.562;2022-11-11T04:07:35;22.50;78.50
1956;DHT22;978;48.314;11.562;2022-11-11T04:10:21;22.50;78.50
1956;DHT22;978;48.314;11.562;2022-11-11T04:12:51;22.50;78.50
1956;DHT22;978;48.314;11.562;2022-11-11T04:15:36;22.40;78.50
1956;DHT22;978;48.314;11.562;2022-11-11T04:18:20;22.50;78.50
1956;DHT22;978;48.314;11.562;2022-11-11T04:21:09;22.50;78.60
1956;DHT22;978;48.314;11.562;2022-11-11T04:23:54;22.50;78.60
1956;DHT22;978;48.314;11.562;2022-11-11T04:26:20;22.50;78.60
1956;DHT22;978;48.314;11.562;2022-11-11T04:28:46;22.50;78.60
1956;DHT22;978;48.314;11.562;2022-11-11T04:31:31;22.50;78.60
1956;DHT22;978;48.314;11.562;2022-11-11T04:33:57;22.50;78.70
1956;DHT22;978;48.314;11.562;2022-11-11T04:36:26;22.50;78.60
1956;DHT22;978;48.314;11.562;2022-11-11T04:38:53;22.50;78.50
1956;DHT22;978;48.314;11.562;2022-11-11T04:41:37;22.50;78.50
1956;DHT22;978;48.314;11.562;2022-11-11T04:44:04;22.50;78.40
1956;DHT22;978;48.314;11.562;2022-11-11T04:46:48;22.50;78.40
1956;DHT22;978;48.314;11.562;2022-11-11T04:49:16;22.50;78.50
1956;DHT22;978;48.314;11.562;2022-11-11T04:51:44;22.50;78.30
1956;DHT22;978;48.314;11.562;2022-11-11T04:54:28;22.50;78.40
1956;DHT22;978;48.314;11.562;2022-11-11T04:57:15;22.50;78.30
1956;DHT22;978;48.314;11.562;2022-11-11T04:59:41;22.50;78.40
1956;DHT22;978;48.314;11.562;2022-11-11T05:02:09;22.50;78.40
1956;DHT22;978;48.314;11.562;2022-11-11T05:04:54;22.50;78.30
1956;DHT22;978;48.314;11.562;2022-11-11T05:07:22;22.50;78.30
1956;DHT22;978;48.314;11.562;2022-11-11T05:10:07;22.50;78.30
1956;DHT22;978;48.314;11.562;2022-11-11T05:12:36;22.50;78.30
1956;DHT22;978;48.314;11.562;2022-11-11T05:15:07;22.50;78.30
1956;DHT22;978;48.314;11.562;2022-11-11T05:17:53;22.50;78.30
1956;DHT22;978;48.314;11.562;2022-11-11T05:20:38;22.50;78.30
1956;DHT22;978;48.314;11.562;2022-11-11T05:23:22;22.50;78.80
1956;DHT22;978;48.314;11.562;2022-11-11T05:26:08;22.50;78.80
1956;DHT22;978;48.314;11.562;2022-11-11T05:28:35;22.50;78.10
1956;DHT22;978;48.314;11.562;2022-11-11T05:31:02;22.50;78.10
1956;DHT22;978;48.314;11.562;2022-11-11T05:33:29;22.50;78.20
1956;DHT22;978;48.314;11.562;2022-11-11T05:35:55;22.50;78.20
1956;DHT22;978;48.314;11.562;2022-11-11T05:38:23;22.50;78.40
1956;DHT22;978;48.314;11.562;2022-11-11T05:40:54;22.50;78.30
1956;DHT22;978;48.314;11.562;2022-11-11T05:43:21;22.50;78.10
1956;DHT22;978;48.314;11.562;2022-11-11T05:45:48;22.50;78.20
1956;DHT22;978;48.314;11.562;2022-11-11T05:48:15;22.50;78.20
1956;DHT22;978;48.314;11.562;2022-11-11T05:50:44;22.50;78.20
1956;DHT22;978;48.314;11.562;2022-11-11T05:53:11;22.50;78.20
1956;DHT22;978;48.314;11.562;2022-11-11T05:55:39;22.50;78.20
1956;DHT22;978;48.314;11.562;2022-11-11T05:58:06;22.50;78.10
1956;DHT22;978;48.314;11.562;2022-11-11T06:00:33;22.50;78.10
1956;DHT22;978;48.314;11.562;2022-11-11T06:03:01;22.50;78.10
1956;DHT22;978;48.314;11.562;2022-11-11T06:05:28;22.50;78.10
1956;DHT22;978;48.314;11.562;2022-11-11T06:07:56;22.50;78.10
1956;DHT22;978;48.314;11.562;2022-11-11T06:10:25;22.50;78.00
1956;DHT22;978;48.314;11.562;2022-11-11T06:13:02;22.50;77.90
1956;DHT22;978;48.314;11.562;2022-11-11T06:15:32;22.50;77.80
1956;DHT22;978;48.314;11.562;2022-11-11T06:18:00;22.50;77.70
1956;DHT22;978;48.314;11.562;2022-11-11T06:20:26;22.50;77.60
1956;DHT22;978;48.314;11.562;2022-11-11T06:22:54;22.50;77.50
1956;DHT22;978;48.314;11.562;2022-11-11T06:25:27;22.50;77.40
1956;DHT22;978;48.314;11.562;2022-11-11T06:28:15;22.50;77.40
1956;DHT22;978;48.314;11.562;2022-11-11T06:30:45;22.50;77.90
1956;DHT22;978;48.314;11.562;2022-11-11T06:33:12;22.50;78.00
1956;DHT22;978;48.314;11.562;2022-11-11T06:35:43;22.50;77.90
1956;DHT22;978;48.314;11.562;2022-11-11T06:38:12;22.50;77.90
1956;DHT22;978;48.314;11.562;2022-11-11T06:40:41;22.50;77.90
1956;DHT22;978;48.314;11.562;2022-11-11T06:43:18;22.50;77.70
1956;DHT22;978;48.314;11.562;2022-11-11T06:45:50;22.40;77.50
1956;DHT22;978;48.314;11.562;2022-11-11T06:48:17;22.40;77.30
1956;DHT22;978;48.314;11.562;2022-11-11T06:50:46;22.50;77.30
1956;DHT22;978;48.314;11.562;2022-11-11T06:53:16;22.50;77.20
1956;DHT22;978;48.314;11.562;2022-11-11T06:55:46;22.50;77.20
1956;DHT22;978;48.314;11.562;2022-11-11T06:58:15;22.50;76.80
1956;DHT22;978;48.314;11.562;2022-11-11T07:00:43;22.50;77.00
1956;DHT22;978;48.314;11.562;2022-11-11T07:03:11;22.40;76.70
1956;DHT22;978;48.314;11.562;2022-11-11T07:05:38;22.50;76.60
1956;DHT22;978;48.314;11.562;2022-11-11T07:08:07;22.40;76.50
1956;DHT22;978;48.314;11.562;2022-11-11T07:10:37;22.50;76.60
1956;DHT22;978;48.314;11.562;2022-11-11T07:13:05;22.50;76.40
1956;DHT22;978;48.314;11.562;2022-11-11T07:15:36;22.50;75.90
1956;DHT22;978;48.314;11.562;2022-11-11T07:18:04;22.50;76.30
1956;DHT22;978;48.314;11.562;2022-11-11T07:20:36;22.50;75.60
1956;DHT22;978;48.314;11.562;2022-11-11T07:23:04;22.50;75.70
1956;DHT22;978;48.314;11.562;2022-11-11T07:25:33;22.50;75.50
1956;DHT22;978;48.314;11.562;2022-11-11T07:28:01;22.50;75.70
1956;DHT22;978;48.314;11.562;2022-11-11T07:30:28;22.50;75.60
1956;DHT22;978;48.314;11.562;2022-11-11T07:32:56;22.40;75.70
1956;DHT22;978;48.314;11.562;2022-11-11T07:35:23;22.50;75.10
1956;DHT22;978;48.314;11.562;2022-11-11T07:37:50;22.40;75.40
1956;DHT22;978;48.314;11.562;2022-11-11T07:40:18;22.50;75.50
1956;DHT22;978;48.314;11.562;2022-11-11T07:42:45;22.50;75.60
1956;DHT22;978;48.314;11.562;2022-11-11T07:45:13;22.50;75.60
1956;DHT22;978;48.314;11.562;2022-11-11T07:47:43;22.40;75.30
1956;DHT22;978;48.314;11.562;2022-11-11T07:50:16;22.40;74.60
1956;DHT22;978;48.314;11.562;2022-11-11T07:52:47;22.40;74.40
1956;DHT22;978;48.314;11.562;2022-11-11T07:55:14;22.50;74.40
1956;DHT22;978;48.314;11.562;2022-11-11T07:57:41;22.40;74.00
1956;DHT22;978;48.314;11.562;2022-11-11T08:00:09;22.40;73.80
1956;DHT22;978;48.314;11.562;2022-11-11T08:02:38;22.50;73.90
1956;DHT22;978;48.314;11.562;2022-11-11T08:05:05;22.40;73.90
1956;DHT22;978;48.314;11.562;2022-11-11T08:07:35;22.40;73.80
1956;DHT22;978;48.314;11.562;2022-11-11T08:10:04;22.50;74.00
1956;DHT22;978;48.314;11.562;2022-11-11T08:12:34;22.50;74.30
1956;DHT22;978;48.314;11.562;2022-11-11T08:15:19;22.50;74.60
1956;DHT22;978;48.314;11.562;2022-11-11T08:17:48;22.40;74.40
1956;DHT22;978;48.314;11.562;2022-11-11T08:20:17;22.40;74.30
1956;DHT22;978;48.314;11.562;2022-11-11T08:22:47;22.40;74.30
1956;DHT22;978;48.314;11.562;2022-11-11T08:25:18;22.40;74.30
1956;DHT22;978;48.314;11.562;2022-11-11T08:27:46;22.40;74.40
1956;DHT22;978;48.314;11.562;2022-11-11T08:30:14;22.40;74.80
1956;DHT22;978;48.314;11.562;2022-11-11T08:32:41;22.40;74.10
1956;DHT22;978;48.314;11.562;2022-11-11T08:35:11;22.50;74.40
1956;DHT22;978;48.314;11.562;2022-11-11T08:37:41;22.50;74.50
1956;DHT22;978;48.314;11.562;2022-11-11T08:40:11;22.50;74.80
1956;DHT22;978;48.314;11.562;2022-11-11T08:42:39;22.50;74.60
1956;DHT22;978;48.314;11.562;2022-11-11T08:45:07;22.50;74.70
1956;DHT22;978;48.314;11.562;2022-11-11T08:47:35;22.50;74.80
1956;DHT22;978;48.314;11.562;2022-11-11T08:50:03;22.40;74.80
1956;DHT22;978;48.314;11.562;2022-11-11T08:52:31;22.50;74.80
1956;DHT22;978;48.314;11.562;2022-11-11T08:54:59;22.50;74.80
1956;DHT22;978;48.314;11.562;2022-11-11T08:57:28;22.40;74.70
1956;DHT22;978;48.314;11.562;2022-11-11T08:59:55;22.40;74.80
1956;DHT22;978;48.314;11.562;2022-11-11T09:02:22;22.40;74.80
1956;DHT22;978;48.314;11.562;2022-11-11T09:04:49;22.50;74.90
1956;DHT22;978;48.314;11.562;2022-11-11T09:07:15;22.50;74.90
1956;DHT22;978;48.314;11.562;2022-11-11T09:09:44;22.50;74.80
1956;DHT22;978;48.314;11.562;2022-11-11T09:12:13;22.50;75.00
1956;DHT22;978;48.314;11.562;2022-11-11T09:14:42;22.50;74.90
1956;DHT22;978;48.314;11.562;2022-11-11T09:17:10;22.50;75.00
1956;DHT22;978;48.314;11.562;2022-11-11T09:19:37;22.40;74.80
1956;DHT22;978;48.314;11.562;2022-11-11T09:22:04;22.50;74.90
1956;DHT22;978;48.314;11.562;2022-11-11T09:24:31;22.50;75.00
1956;DHT22;978;48.314;11.562;2022-11-11T09:26:58;22.50;74.90
1956;DHT22;978;48.314;11.562;2022-11-11T09:29:25;22.50;74.80
1956;DHT22;978;48.314;11.562;2022-11-11T09:31:54;22.50;74.90
1956;DHT22;978;48.314;11.562;2022-11-11T09:34:21;22.50;75.10
1956;DHT22;978;48.314;11.562;2022-11-11T09:36:50;22.50;75.10
1956;DHT22;978;48.314;11.562;2022-11-11T09:39:20;22.50;75.30
1956;DHT22;978;48.314;11.562;2022-11-11T09:41:56;22.50;75.10
1956;DHT22;978;48.314;11.562;2022-11-11T09:44:56;22.50;75.10
1956;DHT22;978;48.314;11.562;2022-11-11T09:47:36;22.50;75.20
1956;DHT22;978;48.314;11.562;2022-11-11T09:50:09;22.50;75.20
1956;DHT22;978;48.314;11.562;2022-11-11T09:52:42;22.50;75.20
1956;DHT22;978;48.314;11.562;2022-11-11T09:55:15;22.50;75.20
1956;DHT22;978;48.314;11.562;2022-11-11T09:57:47;22.50;75.20
1956;DHT22;978;48.314;11.562;2022-11-11T10:00:17;22.50;75.30
1956;DHT22;978;48.314;11.562;2022-11-11T10:02:50;22.50;75.30
1956;DHT22;978;48.314;11.562;2022-11-11T10:05:21;22.50;75.50
1956;DHT22;978;48.314;11.562;2022-11-11T10:07:52;22.50;75.30
1956;DHT22;978;48.314;11.562;2022-11-11T10:10:27;22.50;75.40
1956;DHT22;978;48.314;11.562;2022-11-11T10:12:57;22.50;75.40
1956;DHT22;978;48.314;11.562;2022-11-11T10:15:33;22.50;75.40
1956;DHT22;978;48.314;11.562;2022-11-11T10:18:21;22.50;75.40
1956;DHT22;978;48.314;11.562;2022-11-11T10:20:54;22.50;76.00
1956;DHT22;978;48.314;11.562;2022-11-11T10:23:27;22.50;75.40
1956;DHT22;978;48.314;11.562;2022-11-11T10:25:56;22.50;75.40
1956;DHT22;978;48.314;11.562;2022-11-11T10:28:27;22.50;75.50
1956;DHT22;978;48.314;11.562;2022-11-11T10:30:57;22.40;75.30
1956;DHT22;978;48.314;11.562;2022-11-11T10:33:30;22.50;75.40
1956;DHT22;978;48.314;11.562;2022-11-11T10:36:01;22.50;75.40
1956;DHT22;978;48.314;11.562;2022-11-11T10:38:34;22.50;75.40
1956;DHT22;978;48.314;11.562;2022-11-11T10:41:15;22.50;75.50
1956;DHT22;978;48.314;11.562;2022-11-11T10:43:46;22.50;75.40
1956;DHT22;978;48.314;11.562;2022-11-11T10:46:19;22.50;75.40
1956;DHT22;978;48.314;11.562;2022-11-11T10:48:57;22.50;75.40
1956;DHT22;978;48.314;11.562;2022-11-11T10:51:30;22.50;75.40
1956;DHT22;978;48.314;11.562;2022-11-11T10:54:04;22.50;75.40
1956;DHT22;978;48.314;11.562;2022-11-11T10:56:36;22.50;75.40
1956;DHT22;978;48.314;11.562;2022-11-11T10:59:15;22.50;75.40
1956;DHT22;978;48.314;11.562;2022-11-11T11:01:52;22.50;75.40
1956;DHT22;978;48.314;11.562;2022-11-11T11:04:36;22.50;75.50
1956;DHT22;978;48.314;11.562;2022-11-11T11:07:07;22.50;75.40
1956;DHT22;978;48.314;11.562;2022-11-11T11:09:42;22.40;75.40
1956;DHT22;978;48.314;11.562;2022-11-11T11:12:13;22.50;75.50
1956;DHT22;978;48.314;11.562;2022-11-11T11:14:42;22.50;75.40
1956;DHT22;978;48.314;11.562;2022-11-11T11:17:14;22.50;75.50
1956;DHT22;978;48.314;11.562;2022-11-11T11:19:43;22.50;75.50
1956;DHT22;978;48.314;11.562;2022-11-11T11:22:10;22.50;75.50
1956;DHT22;978;48.314;11.562;2022-11-11T11:24:37;22.50;75.50
1956;DHT22;978;48.314;11.562;2022-11-11T11:27:05;22.50;75.40
1956;DHT22;978;48.314;11.562;2022-11-11T11:29:34;22.50;75.50
1956;DHT22;978;48.314;11.562;2022-11-11T11:32:15;22.50;75.50
1956;DHT22;978;48.314;11.562;2022-11-11T11:34:52;22.50;75.50
1956;DHT22;978;48.314;11.562;2022-11-11T11:37:21;22.50;75.40
1956;DHT22;978;48.314;11.562;2022-11-11T11:40:00;22.50;72.80
1956;DHT22;978;48.314;11.562;2022-11-11T11:42:32;22.40;71.30
1956;DHT22;978;48.314;11.562;2022-11-11T11:45:22;22.40;70.20
1956;DHT22;978;48.314;11.562;2022-11-11T11:48:11;22.40;69.20
1956;DHT22;978;48.314;11.562;2022-11-11T11:50:47;22.30;68.90
1956;DHT22;978;48.314;11.562;2022-11-11T11:53:29;22.30;68.50
1956;DHT22;978;48.314;11.562;2022-11-11T11:56:06;22.30;68.30
1956;DHT22;978;48.314;11.562;2022-11-11T11:58:41;22.30;67.90
1956;DHT22;978;48.314;11.562;2022-11-11T12:01:18;22.20;67.90
1956;DHT22;978;48.314;11.562;2022-11-11T12:04:08;22.20;67.90
1956;DHT22;978;48.314;11.562;2022-11-11T12:06:50;22.20;67.70
1956;DHT22;978;48.314;11.562;2022-11-11T12:09:28;22.30;67.70
1956;DHT22;978;48.314;11.562;2022-11-11T12:12:02;22.20;67.50
1956;DHT22;978;48.314;11.562;2022-11-11T12:14:55;22.20;67.40
1956;DHT22;978;48.314;11.562;2022-11-11T12:17:34;22.20;67.30
1956;DHT22;978;48.314;11.562;2022-11-11T12:25:41;22.20;67.20
1956;DHT22;978;48.314;11.562;2022-11-11T12:28:21;22.20;67.10
1956;DHT22;978;48.314;11.562;2022-11-11T12:30:57;22.20;67.10
1956;DHT22;978;48.314;11.562;2022-11-11T12:33:49;22.20;67.10
1956;DHT22;978;48.314;11.562;2022-11-11T12:36:31;22.20;66.90
1956;DHT22;978;48.314;11.562;2022-11-11T12:39:05;22.20;66.90
1956;DHT22;978;48.314;11.562;2022-11-11T12:41:46;22.20;67.10
1956;DHT22;978;48.314;11.562;2022-11-11T12:44:18;22.20;68.00
1956;DHT22;978;48.314;11.562;2022-11-11T12:46:57;22.30;68.70
1956;DHT22;978;48.314;11.562;2022-11-11T12:49:42;22.30;69.20
1956;DHT22;978;48.314;11.562;2022-11-11T12:52:21;22.30;69.30
1956;DHT22;978;48.314;11.562;2022-11-11T12:55:02;22.30;69.70
1956;DHT22;978;48.314;11.562;2022-11-11T12:57:38;22.40;69.90
1956;DHT22;978;48.314;11.562;2022-11-11T13:00:09;22.40;70.10
1956;DHT22;978;48.314;11.562;2022-11-11T13:02:50;22.40;70.20
1956;DHT22;978;48.314;11.562;2022-11-11T13:05:22;22.40;70.30
1956;DHT22;978;48.314;11.562;2022-11-11T13:08:21;22.40;70.40
1956;DHT22;978;48.314;11.562;2022-11-11T13:10:58;22.40;70.60
1956;DHT22;978;48.314;11.562;2022-11-11T13:13:38;22.40;70.60
1956;DHT22;978;48.314;11.562;2022-11-11T13:16:07;22.40;70.80
1956;DHT22;978;48.314;11.562;2022-11-11T13:18:42;22.40;70.90
1956;DHT22;978;48.314;11.562;2022-11-11T13:21:15;22.40;71.00
1956;DHT22;978;48.314;11.562;2022-11-11T13:23:45;22.40;71.10
1956;DHT22;978;48.314;11.562;2022-11-11T13:26:24;22.40;71.20
1956;DHT22;978;48.314;11.562;2022-11-11T13:28:57;22.40;71.20
1956;DHT22;978;48.314;11.562;2022-11-11T13:31:31;22.40;71.30
1956;DHT22;978;48.314;11.562;2022-11-11T13:34:04;22.40;71.40
1956;DHT22;978;48.314;11.562;2022-11-11T13:36:40;22.40;71.50
1956;DHT22;978;48.314;11.562;2022-11-11T13:39:21;22.40;71.50
1956;DHT22;978;48.314;11.562;2022-11-11T13:41:52;22.40;71.60
1956;DHT22;978;48.314;11.562;2022-11-11T13:44:22;22.40;71.60
1956;DHT22;978;48.314;11.562;2022-11-11T13:46:49;22.40;71.70
1956;DHT22;978;48.314;11.562;2022-11-11T13:49:22;22.50;72.40
1956;DHT22;978;48.314;11.562;2022-11-11T13:51:57;22.40;71.80
1956;DHT22;978;48.314;11.562;2022-11-11T13:54:27;22.40;71.90
1956;DHT22;978;48.314;11.562;2022-11-11T13:57:05;22.40;71.90
1956;DHT22;978;48.314;11.562;2022-11-11T13:59:37;22.40;72.00
1956;DHT22;978;48.314;11.562;2022-11-11T14:02:27;22.40;72.00
1956;DHT22;978;48.314;11.562;2022-11-11T14:05:20;22.40;72.10
1956;DHT22;978;48.314;11.562;2022-11-11T14:07:57;22.40;72.10
1956;DHT22;978;48.314;11.562;2022-11-11T14:10:53;22.40;72.20
1956;DHT22;978;48.314;11.562;2022-11-11T14:13:47;22.40;72.20
1956;DHT22;978;48.314;11.562;2022-11-11T14:19:28;22.40;72.30
1956;DHT22;978;48.314;11.562;2022-11-11T14:21:58;22.40;72.30
1956;DHT22;978;48.314;11.562;2022-11-11T14:24:33;22.40;72.30
1956;DHT22;978;48.314;11.562;2022-11-11T14:27:01;22.40;72.40
1956;DHT22;978;48.314;11.562;2022-11-11T14:29:32;22.40;72.40
1956;DHT22;978;48.314;11.562;2022-11-11T14:32:26;22.40;72.50
1956;DHT22;978;48.314;11.562;2022-11-11T14:35:14;22.40;72.40
1956;DHT22;978;48.314;11.562;2022-11-11T14:37:53;22.40;72.50
1956;DHT22;978;48.314;11.562;2022-11-11T14:40:27;22.40;72.60
1956;DHT22;978;48.314;11.562;2022-11-11T14:42:55;22.40;72.60
1956;DHT22;978;48.314;11.562;2022-11-11T14:45:54;22.50;72.60
1956;DHT22;978;48.314;11.562;2022-11-11T14:48:54;22.40;72.60
1956;DHT22;978;48.314;11.562;2022-11-11T14:54:50;22.40;72.70
1956;DHT22;978;48.314;11.562;2022-11-11T14:57:22;22.40;72.70
1956;DHT22;978;48.314;11.562;2022-11-11T14:59:50;22.40;72.70
1956;DHT22;978;48.314;11.562;2022-11-11T15:02:25;22.40;72.80
1956;DHT22;978;48.314;11.562;2022-11-11T15:04:57;22.40;72.80
1956;DHT22;978;48.314;11.562;2022-11-11T15:07:33;22.40;72.80
1956;DHT22;978;48.314;11.562;2022-11-11T15:13:27;22.40;72.90
1956;DHT22;978;48.314;11.562;2022-11-11T15:16:06;22.40;72.90
1956;DHT22;978;48.314;11.562;2022-11-11T15:19:05;22.40;72.90
1956;DHT22;978;48.314;11.562;2022-11-11T15:21:35;22.40;72.90
1956;DHT22;978;48.314;11.562;2022-11-11T15:24:12;22.40;73.00
1956;DHT22;978;48.314;11.562;2022-11-11T15:26:53;22.40;73.00
1956;DHT22;978;48.314;11.562;2022-11-11T15:29:39;22.40;73.00
1956;DHT22;978;48.314;11.562;2022-11-11T15:32:15;22.40;73.00
1956;DHT22;978;48.314;11.562;2022-11-11T15:34:53;22.40;73.00
1956;DHT22;978;48.314;11.562;2022-11-11T15:37:23;22.40;73.10
1956;DHT22;978;48.314;11.562;2022-11-11T15:39:53;22.40;73.10
1956;DHT22;978;48.314;11.562;2022-11-11T15:42:27;22.40;73.10
1956;DHT22;978;48.314;11.562;2022-11-11T15:44:55;22.40;73.10
1956;DHT22;978;48.314;11.562;2022-11-11T15:47:23;22.40;73.10
1956;DHT22;978;48.314;11.562;2022-11-11T15:49:53;22.40;73.10
1956;DHT22;978;48.314;11.562;2022-11-11T15:52:33;22.40;73.10
1956;DHT22;978;48.314;11.562;2022-11-11T15:55:21;22.40;73.10
1956;DHT22;978;48.314;11.562;2022-11-11T15:57:48;22.40;72.40
1956;DHT22;978;48.314;11.562;2022-11-11T16:00:30;22.40;72.60
1956;DHT22;978;48.314;11.562;2022-11-11T16:02:58;22.40;72.90
1956;DHT22;978;48.314;11.562;2022-11-11T16:05:29;22.40;73.10
1956;DHT22;978;48.314;11.562;2022-11-11T16:08:01;22.40;73.00
1956;DHT22;978;48.314;11.562;2022-11-11T16:10:34;22.40;72.90
1956;DHT22;978;48.314;11.562;2022-11-11T16:13:04;22.40;72.90
1956;DHT22;978;48.314;11.562;2022-11-11T16:15:37;22.40;72.90
1956;DHT22;978;48.314;11.562;2022-11-11T16:18:11;22.40;72.80
1956;DHT22;978;48.314;11.562;2022-11-11T16:20:45;22.40;72.90
1956;DHT22;978;48.314;11.562;2022-11-11T16:23:16;22.40;72.90
1956;DHT22;978;48.314;11.562;2022-11-11T16:25:45;22.40;72.90
1956;DHT22;978;48.314;11.562;2022-11-11T16:28:14;22.40;72.90
1956;DHT22;978;48.314;11.562;2022-11-11T16:30:41;22.40;72.90
1956;DHT22;978;48.314;11.562;2022-11-11T16:33:32;22.40;73.00
1956;DHT22;978;48.314;11.562;2022-11-11T16:36:10;22.40;71.90
1956;DHT22;978;48.314;11.562;2022-11-11T16:38:37;22.40;71.80
1956;DHT22;978;48.314;11.562;2022-11-11T16:43:46;22.40;72.60
1956;DHT22;978;48.314;11.562;2022-11-11T16:46:15;22.40;72.80
1956;DHT22;978;48.314;11.562;2022-11-11T16:48:48;22.40;72.90
1956;DHT22;978;48.314;11.562;2022-11-11T16:51:20;22.40;72.80
1956;DHT22;978;48.314;11.562;2022-11-11T16:53:53;22.40;73.10
1956;DHT22;978;48.314;11.562;2022-11-11T16:56:24;22.40;73.20